Time;durP1;ratioP1;P1;durP2;ratioP2;P2;SDS_P1;SDS_P2;PMS_P1;PMS_P2;Temp;Humidity;BMP_temperature;BMP_pressure;BME280_temperature;BME280_humidity;BME280_pressure;Samples;Min_cycle;Max_cycle;Signal;HPM_P1;HPM_P2
2021/10/05 00:00:03;;;;;;;9.43;7.30;;;;;;;19.83;48.12;101714.41;1796164;79;21250;-72
2021/10/05 00:02:33;;;;;;;10.18;7.47;;;;;;;19.86;47.97;101713.98;1797489;79;21264;-73
2021/10/05 00:05:00;;;;;;;11.80;8.63;;;;;;;20.06;47.62;101716.55;1798709;79;21142;-70
2021/10/05 00:07:27;;;;;;;9.77;7.20;;;;;;;20.09;47.54;101714.81;1787599;79;21308;-71
2021/10/05 00:09:53;;;;;;;9.03;6.53;;;;;;;20.11;47.43;101716.72;1790667;79;21274;-70
2021/10/05 00:12:19;;;;;;;10.97;7.20;;;;;;;20.07;47.38;101720.81;1788012;79;21514;-70
2021/10/05 00:14:46;;;;;;;9.60;7.30;;;;;;;19.67;47.77;101719.64;1791032;79;21864;-73
2021/10/05 00:17:12;;;;;;;15.13;7.50;;;;;;;19.32;49.36;101722.20;1792788;79;21125;-69
2021/10/05 00:19:39;;;;;;;11.10;7.40;;;;;;;19.23;49.55;101723.44;1787190;79;21283;-73
2021/10/05 00:22:06;;;;;;;10.90;7.13;;;;;;;19.62;48.85;101720.78;1792124;78;21645;-69
2021/10/05 00:24:32;;;;;;;9.47;7.70;;;;;;;19.68;48.56;101721.77;1807012;78;21712;-70
2021/10/05 00:26:59;;;;;;;10.10;7.80;;;;;;;19.09;50.12;101731.39;1807478;78;21771;-72
2021/10/05 00:29:25;;;;;;;11.00;7.70;;;;;;;19.21;50.20;101731.59;1792109;79;21108;-70
2021/10/05 00:31:51;;;;;;;10.20;7.43;;;;;;;19.05;50.03;101728.81;1793919;79;21299;-73
2021/10/05 00:34:18;;;;;;;11.27;7.93;;;;;;;19.08;50.61;101729.73;1787864;79;21070;-70
2021/10/05 00:36:44;;;;;;;11.67;8.17;;;;;;;19.10;50.64;101732.20;1794993;79;21311;-70
2021/10/05 00:39:11;;;;;;;11.00;7.80;;;;;;;19.30;50.08;101725.06;1793443;79;21197;-69
2021/10/05 00:41:38;;;;;;;10.73;7.70;;;;;;;19.31;49.92;101724.55;1795794;79;21358;-69
2021/10/05 00:44:05;;;;;;;12.57;8.00;;;;;;;19.51;49.38;101725.35;1788394;79;21097;-72
2021/10/05 00:46:34;;;;;;;13.13;8.70;;;;;;;19.49;48.97;101719.44;1786784;79;22557;-69
2021/10/05 00:49:01;;;;;;;11.57;9.10;;;;;;;19.00;50.12;101724.66;1796178;79;21236;-69
2021/10/05 00:51:28;;;;;;;13.00;8.60;;;;;;;19.05;50.42;101724.05;1786179;79;21682;-69
2021/10/05 00:53:55;;;;;;;10.57;7.97;;;;;;;19.01;50.67;101730.75;1796994;79;21278;-73
2021/10/05 00:56:21;;;;;;;12.00;7.60;;;;;;;19.00;50.62;101727.81;1792365;79;21325;-70
2021/10/05 00:58:48;;;;;;;10.97;8.23;;;;;;;18.96;50.65;101726.89;1783308;79;21335;-70
2021/10/05 01:01:15;;;;;;;11.20;8.73;;;;;;;19.13;50.22;101726.00;1793319;79;21227;-72
2021/10/05 01:03:43;;;;;;;10.80;8.13;;;;;;;19.15;50.00;101722.63;1787048;79;21274;-73
2021/10/05 01:06:10;;;;;;;10.63;7.57;;;;;;;19.23;49.63;101724.76;1771306;79;21279;-69
2021/10/05 01:08:36;;;;;;;12.30;7.70;;;;;;;19.18;49.72;101726.19;1789537;79;21152;-70
2021/10/05 01:11:03;;;;;;;11.83;8.50;;;;;;;19.27;49.42;101729.94;1787985;79;21300;-70
2021/10/05 01:13:29;;;;;;;10.90;7.93;;;;;;;19.14;49.72;101722.33;1792046;79;21336;-71
2021/10/05 01:15:56;;;;;;;9.98;8.08;;;;;;;19.04;49.82;101723.23;1782419;79;21296;-72
2021/10/05 01:18:23;;;;;;;11.50;7.53;;;;;;;18.82;50.84;101728.40;1787990;78;21117;-70
2021/10/05 01:21:00;;;;;;;11.30;7.93;;;;;;;18.66;51.39;101733.02;1782419;79;21358;-71
2021/10/05 01:23:27;;;;;;;13.07;7.93;;;;;;;18.80;51.52;101727.80;1780070;79;21789;-71
2021/10/05 01:25:54;;;;;;;13.08;8.00;;;;;;;18.80;51.45;101728.61;1791610;79;21291;-72
2021/10/05 01:28:23;;;;;;;10.67;8.20;;;;;;;18.79;51.41;101731.44;1780254;79;21048;-71
2021/10/05 01:30:50;;;;;;;10.30;7.83;;;;;;;18.77;51.54;101727.69;1775307;79;21315;-71
2021/10/05 01:33:18;;;;;;;12.37;8.70;;;;;;;18.78;51.27;101735.91;1781189;79;20993;-70
2021/10/05 01:35:44;;;;;;;12.00;8.27;;;;;;;18.69;51.68;101733.94;1781723;79;21286;-74
2021/10/05 01:38:10;;;;;;;12.20;8.40;;;;;;;18.74;51.57;101739.16;1785853;79;21799;-71
2021/10/05 01:40:37;;;;;;;11.17;8.27;;;;;;;18.82;51.37;101735.81;1774421;78;21397;-71
2021/10/05 01:43:04;;;;;;;13.87;8.83;;;;;;;18.77;51.35;101740.09;1782233;78;22306;-74
2021/10/05 01:45:31;;;;;;;13.00;9.55;;;;;;;18.83;51.23;101738.78;1780646;78;21371;-71
2021/10/05 01:47:58;;;;;;;10.70;7.50;;;;;;;18.93;51.06;101741.02;1784647;78;21029;-71
2021/10/05 01:50:27;;;;;;;11.77;8.50;;;;;;;18.85;50.78;101746.50;1771895;78;21265;-71
2021/10/05 01:52:54;;;;;;;11.10;8.95;;;;;;;18.74;51.10;101749.73;1781583;78;21057;-71
2021/10/05 01:55:21;;;;;;;11.03;8.58;;;;;;;18.77;51.06;101765.99;1776707;79;21134;-71
2021/10/05 01:57:47;;;;;;;11.40;7.97;;;;;;;18.62;51.24;101758.20;1779794;78;21926;-71
2021/10/05 02:00:14;;;;;;;9.83;7.63;;;;;;;18.58;51.60;101753.02;1779256;78;21065;-74
2021/10/05 02:02:41;;;;;;;12.00;8.68;;;;;;;18.53;51.66;101766.02;1777419;78;21759;-71
2021/10/05 02:05:08;;;;;;;15.80;10.10;;;;;;;18.66;51.56;101762.58;1780842;78;20897;-71
2021/10/05 02:07:35;;;;;;;11.08;8.45;;;;;;;18.90;50.94;101770.00;1777550;78;22693;-70
2021/10/05 02:10:05;;;;;;;9.47;7.60;;;;;;;18.56;51.54;101771.38;1779112;79;20967;-70
2021/10/05 02:12:33;;;;;;;11.78;8.05;;;;;;;18.76;51.25;101771.48;1781509;79;21287;-70
2021/10/05 02:14:59;;;;;;;10.20;7.90;;;;;;;18.28;52.30;101772.31;1747320;81;21048;-73
2021/10/05 02:17:26;;;;;;;10.90;8.18;;;;;;;18.22;53.28;101773.92;1748281;81;21434;-71
2021/10/05 02:19:52;;;;;;;10.53;7.77;;;;;;;18.23;53.59;101780.02;1782590;79;22423;-71
2021/10/05 02:22:19;;;;;;;11.28;7.45;;;;;;;18.26;53.79;101763.79;1779847;78;21154;-70
2021/10/05 02:24:46;;;;;;;11.43;8.15;;;;;;;18.06;54.71;101774.23;1784879;79;21051;-72
2021/10/05 02:27:17;;;;;;;12.43;8.10;;;;;;;18.10;54.71;101778.61;1775303;80;21522;-71
2021/10/05 02:29:44;;;;;;;12.23;8.23;;;;;;;18.05;55.39;101787.63;1777614;80;21265;-71
2021/10/05 02:32:11;;;;;;;11.12;8.10;;;;;;;17.87;56.18;101788.94;1780848;79;21613;-71
2021/10/05 02:34:38;;;;;;;11.45;7.03;;;;;;;17.75;57.37;101789.17;1777976;78;21547;-71
2021/10/05 02:37:04;;;;;;;9.85;7.45;;;;;;;17.57;59.19;101796.20;1776540;79;21075;-71
2021/10/05 02:39:33;;;;;;;10.32;8.03;;;;;;;17.67;58.70;101795.38;1777521;78;21052;-72
2021/10/05 02:42:00;;;;;;;10.85;7.92;;;;;;;17.62;59.19;101804.38;1788614;79;20987;-70
2021/10/05 02:44:27;;;;;;;9.75;6.87;;;;;;;17.73;58.38;101801.22;1790543;79;21506;-71
2021/10/05 02:46:53;;;;;;;10.23;6.85;;;;;;;17.60;59.59;101801.11;1789866;79;21465;-71
2021/10/05 02:49:20;;;;;;;10.38;6.90;;;;;;;17.61;59.44;101804.55;1790407;79;21085;-71
2021/10/05 02:51:47;;;;;;;11.10;7.22;;;;;;;17.80;58.49;101803.91;1791798;79;21059;-73
2021/10/05 02:54:14;;;;;;;10.58;7.05;;;;;;;17.75;58.35;101804.48;1796308;79;21014;-71
2021/10/05 02:56:41;;;;;;;8.98;6.95;;;;;;;17.68;58.28;101804.91;1789352;79;22246;-74
2021/10/05 02:59:08;;;;;;;11.93;7.22;;;;;;;17.68;58.38;101814.14;1785355;79;21004;-71
2021/10/05 03:01:34;;;;;;;12.40;7.30;;;;;;;17.44;59.24;101810.11;1758048;78;21062;-70
2021/10/05 03:04:01;;;;;;;10.00;6.75;;;;;;;17.21;61.69;101809.00;1731579;82;20994;-73
2021/10/05 03:06:28;;;;;;;10.58;6.67;;;;;;;17.06;63.12;101800.85;1732083;82;20979;-74
2021/10/05 03:08:55;;;;;;;11.57;7.85;;;;;;;17.18;63.05;101807.24;1726253;82;21122;-71
2021/10/05 03:11:22;;;;;;;10.28;7.33;;;;;;;17.08;63.49;101807.55;1733622;82;21423;-71
2021/10/05 03:13:48;;;;;;;9.70;6.78;;;;;;;17.08;64.09;101811.50;1732189;82;21092;-71
2021/10/05 03:16:14;;;;;;;11.10;7.83;;;;;;;17.03;64.21;101811.25;1730888;82;20935;-72
2021/10/05 03:18:42;;;;;;;10.03;7.33;;;;;;;17.25;62.87;101806.30;1735127;82;21077;-71
2021/10/05 03:21:11;;;;;;;10.95;7.37;;;;;;;16.98;64.09;101810.50;1730641;82;21150;-70
2021/10/05 03:23:39;;;;;;;12.50;7.55;;;;;;;16.74;66.16;101813.47;1732124;82;21632;-71
2021/10/05 03:26:06;;;;;;;10.05;7.03;;;;;;;16.93;64.99;101812.89;1734094;82;21630;-72
2021/10/05 03:28:34;;;;;;;10.18;7.42;;;;;;;16.93;65.13;101813.37;1730602;81;21018;-72
2021/10/05 03:31:01;;;;;;;11.57;8.68;;;;;;;16.97;64.42;101814.15;1734800;82;21141;-70
2021/10/05 03:33:28;;;;;;;12.53;7.55;;;;;;;16.95;64.74;101818.78;1727484;82;21207;-70
2021/10/05 03:35:54;;;;;;;8.85;6.15;;;;;;;16.87;65.08;101818.90;1731488;82;21557;-70
2021/10/05 03:38:22;;;;;;;12.55;7.55;;;;;;;16.74;65.93;101822.21;1731063;82;21144;-73
2021/10/05 03:40:50;;;;;;;11.70;7.83;;;;;;;17.05;64.37;101822.44;1732522;82;21045;-69
2021/10/05 03:43:17;;;;;;;10.60;6.72;;;;;;;16.96;64.13;101818.27;1733461;81;21166;-70
2021/10/05 03:45:43;;;;;;;10.18;7.17;;;;;;;17.08;63.73;101821.22;1733238;82;21903;-69
2021/10/05 03:48:09;;;;;;;9.63;7.20;;;;;;;17.24;62.23;101820.48;1734725;82;21509;-71
2021/10/05 03:50:36;;;;;;;10.70;6.92;;;;;;;16.96;63.32;101825.67;1734409;81;20876;-69
2021/10/05 03:53:03;;;;;;;9.60;6.78;;;;;;;17.25;62.06;101826.06;1735931;82;21157;-69
2021/10/05 03:55:31;;;;;;;9.83;7.15;;;;;;;17.25;62.13;101825.25;1726991;82;21014;-69
2021/10/05 03:57:58;;;;;;;9.80;7.17;;;;;;;17.26;62.00;101821.09;1735945;82;21220;-69
2021/10/05 04:00:24;;;;;;;9.78;7.78;;;;;;;17.22;61.82;101823.80;1730508;82;21089;-71
2021/10/05 04:02:50;;;;;;;8.68;6.22;;;;;;;17.50;61.18;101828.30;1748082;81;21017;-70
2021/10/05 04:05:17;;;;;;;9.50;6.40;;;;;;;17.64;59.54;101828.72;1751624;81;20973;-70
2021/10/05 04:07:43;;;;;;;10.28;6.90;;;;;;;17.69;60.06;101830.30;1740700;81;21039;-71
2021/10/05 04:10:10;;;;;;;12.85;7.37;;;;;;;17.91;58.52;101833.71;1745156;81;21871;-71
2021/10/05 04:12:36;;;;;;;8.50;6.10;;;;;;;17.56;59.29;101831.50;1748715;81;20868;-71
2021/10/05 04:15:04;;;;;;;8.50;5.87;;;;;;;17.96;57.42;101837.92;1744907;81;22154;-68
2021/10/05 04:17:31;;;;;;;8.23;6.10;;;;;;;18.11;56.13;101835.17;1728290;81;22103;-67
2021/10/05 04:19:57;;;;;;;11.73;6.67;;;;;;;18.17;54.97;101837.02;1704337;82;21003;-69
2021/10/05 04:22:24;;;;;;;8.50;6.17;;;;;;;18.20;54.71;101839.78;1736171;81;21187;-70
2021/10/05 04:24:50;;;;;;;8.70;5.47;;;;;;;18.22;54.33;101838.59;1734659;81;21245;-72
2021/10/05 04:27:17;;;;;;;9.47;6.23;;;;;;;18.24;53.91;101844.98;1735759;81;21052;-70
2021/10/05 04:29:44;;;;;;;9.73;6.43;;;;;;;18.41;53.68;101840.18;1735516;81;21711;-71
2021/10/05 04:32:11;;;;;;;8.83;5.93;;;;;;;18.55;53.68;101844.52;1721463;83;21304;-72
2021/10/05 04:34:38;;;;;;;8.80;6.67;;;;;;;19.00;51.55;101845.41;1715830;81;21263;-72
2021/10/05 04:37:06;;;;;;;9.97;6.53;;;;;;;19.07;50.59;101847.05;1745489;81;21214;-72
2021/10/05 04:39:33;;;;;;;7.80;5.90;;;;;;;19.00;50.48;101852.02;1747356;81;21289;-71
2021/10/05 04:42:00;;;;;;;7.40;5.40;;;;;;;19.00;50.00;101852.02;1748214;81;21689;-71
2021/10/05 04:44:27;;;;;;;8.63;6.30;;;;;;;18.82;50.29;101859.17;1749005;81;21548;-70
2021/10/05 04:46:53;;;;;;;7.90;5.97;;;;;;;18.81;50.47;101862.84;1742274;81;21323;-70
2021/10/05 04:49:20;;;;;;;9.47;6.83;;;;;;;18.88;49.98;101878.21;1747885;81;21817;-70
2021/10/05 04:51:46;;;;;;;8.30;5.73;;;;;;;18.87;49.85;101860.73;1750188;81;21256;-71
2021/10/05 04:54:13;;;;;;;7.73;5.73;;;;;;;18.93;49.62;101862.56;1749270;81;21100;-70
2021/10/05 04:56:39;;;;;;;11.37;6.20;;;;;;;19.14;49.19;101873.51;1743381;81;21919;-70
2021/10/05 04:59:06;;;;;;;8.47;6.23;;;;;;;19.10;49.19;101864.35;1747828;81;21316;-70
2021/10/05 05:01:33;;;;;;;8.53;6.23;;;;;;;19.13;49.09;101874.02;1748564;81;21279;-71
2021/10/05 05:04:00;;;;;;;8.63;5.70;;;;;;;19.07;49.07;101871.36;1740402;81;21303;-70
2021/10/05 05:06:27;;;;;;;9.37;5.87;;;;;;;19.32;48.98;101879.52;1748511;81;21697;-71
2021/10/05 05:08:53;;;;;;;8.20;6.30;;;;;;;19.30;49.17;101876.28;1745999;81;21769;-73
2021/10/05 05:11:20;;;;;;;7.47;5.33;;;;;;;19.33;49.12;101890.42;1745795;81;22601;-73
2021/10/05 05:13:47;;;;;;;6.93;5.17;;;;;;;19.53;48.64;101886.47;1744966;81;21280;-71
2021/10/05 05:16:15;;;;;;;7.93;5.47;;;;;;;19.50;48.57;101896.12;1748112;81;21140;-71
2021/10/05 05:18:41;;;;;;;8.20;5.87;;;;;;;19.58;48.35;101897.25;1743485;81;21832;-71
2021/10/05 05:21:08;;;;;;;8.87;5.87;;;;;;;19.74;47.92;101901.39;1741378;81;21169;-71
2021/10/05 05:23:34;;;;;;;8.90;5.53;;;;;;;19.83;47.73;101896.98;1744480;81;21375;-71
2021/10/05 05:26:00;;;;;;;10.13;5.77;;;;;;;19.88;47.51;101895.05;1746612;81;21783;-70
2021/10/05 05:28:27;;;;;;;10.90;5.80;;;;;;;20.08;46.63;101893.22;1727921;81;21186;-71
2021/10/05 05:30:53;;;;;;;7.80;5.50;;;;;;;19.87;46.70;101896.08;1748218;81;21349;-70
2021/10/05 05:33:20;;;;;;;7.07;5.73;;;;;;;19.99;46.39;101901.05;1738606;81;21346;-71
2021/10/05 05:35:47;;;;;;;6.43;5.10;;;;;;;19.82;46.85;101894.56;1718069;81;21397;-74
2021/10/05 05:38:14;;;;;;;9.07;5.43;;;;;;;19.71;47.47;101892.52;1741874;81;21347;-71
2021/10/05 05:40:42;;;;;;;8.80;5.53;;;;;;;19.49;47.62;101907.22;1747805;81;21238;-72
2021/10/05 05:43:08;;;;;;;8.47;5.10;;;;;;;19.56;47.98;101905.41;1744478;81;21211;-71
2021/10/05 05:45:35;;;;;;;7.10;5.43;;;;;;;19.80;47.44;101905.84;1743713;81;21100;-71
2021/10/05 05:48:02;;;;;;;9.40;6.10;;;;;;;19.71;47.02;101903.11;1748710;81;21214;-71
2021/10/05 05:50:30;;;;;;;7.30;5.03;;;;;;;19.88;47.01;101902.98;1743038;81;21228;-71
2021/10/05 05:52:57;;;;;;;7.67;5.77;;;;;;;19.68;47.15;101913.06;1743165;81;21221;-71
2021/10/05 05:55:23;;;;;;;7.20;5.10;;;;;;;20.04;46.61;101912.34;1746225;81;21189;-71
2021/10/05 05:57:51;;;;;;;10.57;5.70;;;;;;;20.04;46.58;101917.63;1745217;81;21209;-71
2021/10/05 06:00:19;;;;;;;9.27;5.80;;;;;;;19.72;46.73;101917.95;1745961;81;21181;-72
2021/10/05 06:02:46;;;;;;;7.27;5.13;;;;;;;20.23;45.78;101919.95;1741012;81;21262;-71
2021/10/05 06:05:13;;;;;;;8.57;5.20;;;;;;;20.21;45.55;101918.03;1714038;81;21122;-72
2021/10/05 06:07:40;;;;;;;7.07;5.23;;;;;;;20.67;44.90;101918.45;1714298;82;21334;-72
2021/10/05 06:10:09;;;;;;;9.00;6.00;;;;;;;20.50;44.78;101925.55;1716941;81;21405;-71
2021/10/05 06:12:38;;;;;;;8.23;5.20;;;;;;;20.11;45.46;101932.48;1724827;82;21739;-71
2021/10/05 06:15:11;;;;;;;6.80;5.00;;;;;;;20.06;45.66;101928.84;1721144;82;21262;-70
2021/10/05 06:17:39;;;;;;;9.57;6.03;;;;;;;20.12;45.85;101936.78;1715633;81;21323;-70
2021/10/05 06:20:12;;;;;;;7.77;4.93;;;;;;;20.26;45.85;101934.92;1721509;81;21448;-70
2021/10/05 06:22:39;;;;;;;9.20;4.83;;;;;;;20.26;45.85;101934.92;1720844;81;21396;-71
2021/10/05 06:25:08;;;;;;;7.87;6.17;;;;;;;20.60;45.11;101940.98;1720482;82;22529;-70
2021/10/05 06:27:35;;;;;;;7.53;4.47;;;;;;;20.54;44.91;101943.16;1721216;82;21947;-69
2021/10/05 06:30:03;;;;;;;8.03;5.47;;;;;;;20.58;45.02;101945.19;1719266;82;21943;-70
2021/10/05 06:32:30;;;;;;;8.63;5.83;;;;;;;20.54;45.04;101946.62;1712539;83;21492;-70
2021/10/05 06:34:57;;;;;;;8.60;5.63;;;;;;;20.54;45.04;101946.62;1715044;81;22721;-71
2021/10/05 06:37:23;;;;;;;9.47;6.07;;;;;;;20.55;44.77;101943.45;1719825;82;21472;-72
2021/10/05 06:39:50;;;;;;;9.90;5.47;;;;;;;20.56;44.92;101945.89;1712931;81;21326;-72
2021/10/05 06:42:16;;;;;;;6.80;5.00;;;;;;;20.84;44.54;101943.48;1718301;82;22288;-73
2021/10/05 06:44:43;;;;;;;6.77;5.03;;;;;;;20.80;44.30;101955.00;1712507;82;22088;-72
2021/10/05 06:47:11;;;;;;;7.50;5.77;;;;;;;20.80;44.30;101955.00;1714995;82;21807;-73
2021/10/05 06:49:39;;;;;;;8.37;5.30;;;;;;;20.96;43.91;101948.93;1721119;82;21862;-72
2021/10/05 06:52:06;;;;;;;7.40;4.43;;;;;;;21.02;43.81;101943.58;1707893;81;21966;-72
2021/10/05 06:54:34;;;;;;;9.33;5.67;;;;;;;21.02;43.81;101943.58;1713288;82;21757;-70
2021/10/05 06:57:00;;;;;;;10.57;6.57;;;;;;;20.99;43.89;101940.05;1720384;82;21593;-71
2021/10/05 06:59:27;;;;;;;11.03;6.30;;;;;;;21.17;43.29;101934.54;1717517;82;21796;-72
2021/10/05 07:01:53;;;;;;;9.30;6.03;;;;;;;21.17;43.29;101934.54;1708502;82;21668;-73
2021/10/05 07:04:20;;;;;;;6.70;5.13;;;;;;;21.34;43.08;101954.27;1696416;82;22899;-74
2021/10/05 07:06:47;;;;;;;9.77;5.13;;;;;;;21.21;42.92;101947.16;1701096;83;21771;-73
2021/10/05 07:09:13;;;;;;;9.67;6.23;;;;;;;21.32;43.16;101945.67;1711056;83;21744;-74
2021/10/05 07:11:41;;;;;;;7.33;5.13;;;;;;;21.46;42.87;101941.95;1708419;82;21764;-71
2021/10/05 07:14:08;;;;;;;8.40;5.50;;;;;;;21.47;42.73;101947.55;1710651;83;21633;-75
2021/10/05 07:16:34;;;;;;;9.43;5.67;;;;;;;21.57;42.78;101947.09;1707074;83;21685;-74
2021/10/05 07:19:01;;;;;;;8.83;5.47;;;;;;;21.62;42.89;101946.72;1706024;82;21557;-74
2021/10/05 07:21:27;;;;;;;8.83;5.80;;;;;;;21.81;42.33;101944.14;1707432;82;23128;-73
2021/10/05 07:23:53;;;;;;;9.47;5.67;;;;;;;21.92;42.29;101958.04;1708237;83;21703;-72
2021/10/05 07:26:20;;;;;;;11.83;6.00;;;;;;;22.00;42.00;101947.66;1705333;83;21724;-72
2021/10/05 07:28:46;;;;;;;9.83;5.00;;;;;;;22.06;41.77;101948.94;1699665;82;21739;-68
2021/10/05 07:31:13;;;;;;;10.33;6.27;;;;;;;22.07;41.79;101947.09;1693284;83;21716;-70
2021/10/05 07:33:40;;;;;;;6.47;4.87;;;;;;;22.38;41.12;101944.06;1692161;83;21744;-72
2021/10/05 07:36:07;;;;;;;10.77;6.23;;;;;;;22.43;40.90;101945.05;1692111;83;21736;-71
2021/10/05 07:38:33;;;;;;;10.03;5.57;;;;;;;22.46;40.77;101945.10;1694021;83;21790;-68
2021/10/05 07:41:00;;;;;;;10.97;5.80;;;;;;;22.37;40.74;101939.27;1691010;83;21789;-68
2021/10/05 07:43:26;;;;;;;11.93;6.30;;;;;;;22.40;40.57;101938.84;1694008;82;22030;-70
2021/10/05 07:45:53;;;;;;;8.87;5.03;;;;;;;22.51;40.74;101950.58;1697757;82;22217;-70
2021/10/05 07:48:20;;;;;;;8.83;5.77;;;;;;;22.46;40.76;101949.89;1707757;83;21781;-69
2021/10/05 07:50:47;;;;;;;9.13;5.87;;;;;;;22.54;40.67;101973.55;1706975;83;21708;-70
2021/10/05 07:53:13;;;;;;;8.57;5.90;;;;;;;22.66;40.48;101952.88;1698957;82;21765;-70
2021/10/05 07:55:40;;;;;;;14.27;6.33;;;;;;;22.75;40.46;101956.84;1704899;82;21693;-68
2021/10/05 07:58:06;;;;;;;10.07;6.20;;;;;;;22.86;40.27;101955.30;1709491;83;22234;-70
2021/10/05 08:00:34;;;;;;;16.23;6.30;;;;;;;22.89;39.68;101956.19;1696739;83;21709;-70
2021/10/05 08:03:00;;;;;;;10.73;5.60;;;;;;;22.93;39.40;101949.41;1708894;81;22704;-69
2021/10/05 08:05:27;;;;;;;12.43;6.53;;;;;;;22.70;39.72;101946.08;1712558;81;21074;-72
2021/10/05 08:08:05;;;;;;;9.33;5.97;;;;;;;22.74;39.76;101954.71;1712239;81;22285;-70
2021/10/05 08:10:29;;;;;;;9.00;5.20;;;;;;;23.06;39.25;101962.52;1712381;82;21624;-69
2021/10/05 08:12:56;;;;;;;12.13;6.43;;;;;;;22.65;39.98;101957.88;1712426;81;21724;-69
2021/10/05 08:15:22;;;;;;;8.43;5.03;;;;;;;22.76;40.06;101955.80;1712044;82;21109;-70
2021/10/05 08:17:49;;;;;;;9.83;5.27;;;;;;;22.75;39.95;101963.49;1710051;83;21051;-71
2021/10/05 08:20:16;;;;;;;10.73;5.80;;;;;;;22.75;39.95;101963.49;1715341;81;21007;-69
2021/10/05 08:22:42;;;;;;;6.67;4.90;;;;;;;22.52;40.24;101963.64;1715719;81;21674;-72
2021/10/05 08:25:10;;;;;;;7.40;4.97;;;;;;;22.78;39.68;101962.53;1712999;82;21165;-70
2021/10/05 08:27:38;;;;;;;11.00;5.90;;;;;;;22.81;39.49;101970.59;1710329;82;21153;-72
2021/10/05 08:30:07;;;;;;;6.93;5.10;;;;;;;22.78;39.49;101967.05;1715322;81;21024;-72
2021/10/05 08:32:35;;;;;;;10.05;5.15;;;;;;;22.88;39.64;101967.83;1717595;81;21514;-72
2021/10/05 08:35:04;;;;;;;7.63;5.27;;;;;;;23.14;39.39;101978.69;1718302;81;22239;-72
2021/10/05 08:37:32;;;;;;;11.17;5.73;;;;;;;23.29;39.02;101967.12;1717487;81;21615;-72
2021/10/05 08:39:58;;;;;;;7.50;5.63;;;;;;;23.29;38.75;101977.77;1715011;82;21115;-72
2021/10/05 08:42:25;;;;;;;7.83;5.30;;;;;;;23.38;38.33;101959.13;1711725;81;21007;-72
2021/10/05 08:44:51;;;;;;;9.37;5.43;;;;;;;23.49;38.63;101965.01;1711264;82;21066;-72
2021/10/05 08:47:18;;;;;;;8.03;5.23;;;;;;;23.86;38.16;101968.85;1719690;81;21511;-72
2021/10/05 08:49:46;;;;;;;11.53;5.90;;;;;;;24.18;37.28;101964.55;1717415;81;21133;-72
2021/10/05 08:52:13;;;;;;;8.13;5.40;;;;;;;24.48;36.78;101955.91;1750060;80;21097;-72
2021/10/05 08:54:41;;;;;;;6.90;4.73;;;;;;;24.46;36.46;101951.33;1749847;81;21011;-71
2021/10/05 08:57:08;;;;;;;7.57;4.63;;;;;;;24.58;35.92;101965.16;1750710;80;21441;-72
2021/10/05 08:59:34;;;;;;;7.80;4.90;;;;;;;24.73;35.48;101960.14;1748009;80;22077;-70
2021/10/05 09:02:13;;;;;;;7.27;5.53;;;;;;;25.03;34.89;101966.59;1748921;80;21025;-69
2021/10/05 09:04:41;;;;;;;7.47;4.50;;;;;;;25.06;35.19;101961.31;1754482;80;21529;-76
2021/10/05 09:07:25;;;;;;;12.53;6.27;;;;;;;25.22;34.87;101957.91;1750977;81;21473;-71
2021/10/05 09:09:55;;;;;;;12.43;7.50;;;;;;;25.20;34.67;101964.02;1754191;81;21059;-70
2021/10/05 09:12:25;;;;;;;7.37;4.50;;;;;;;25.40;34.22;101964.38;1756445;80;21076;-68
2021/10/05 09:14:54;;;;;;;5.58;4.15;;;;;;;25.45;34.04;101958.30;1744239;81;20940;-69
2021/10/05 09:17:25;;;;;;;8.30;4.10;;;;;;;25.50;33.83;101948.27;1748294;81;21175;-68
2021/10/05 09:19:54;;;;;;;6.05;3.72;;;;;;;25.96;33.19;101953.30;1745231;81;21067;-73
2021/10/05 09:22:25;;;;;;;9.10;4.97;;;;;;;26.11;33.00;101949.23;1744724;81;21189;-68
2021/10/05 09:24:55;;;;;;;6.90;4.58;;;;;;;26.32;32.06;101948.44;1738740;81;20989;-67
2021/10/05 09:27:22;;;;;;;9.83;5.00;;;;;;;26.50;31.57;101938.54;1746844;81;21029;-68
2021/10/05 09:29:50;;;;;;;24.40;15.47;;;;;;;26.83;31.50;101939.73;1747049;81;21300;-68
2021/10/05 09:32:20;;;;;;;8.53;5.77;;;;;;;26.95;31.04;101933.44;1749039;81;21104;-69
2021/10/05 09:34:56;;;;;;;7.10;3.40;;;;;;;27.20;30.65;101931.55;1744449;81;21128;-68
2021/10/05 09:37:31;;;;;;;7.20;3.60;;;;;;;27.23;29.90;101944.44;1749842;81;20978;-70
2021/10/05 09:40:13;;;;;;;7.07;3.70;;;;;;;27.21;29.85;101942.03;1722008;81;21145;-70
2021/10/05 09:42:47;;;;;;;5.37;3.70;;;;;;;27.07;29.64;101940.78;1749917;81;21225;-69
2021/10/05 09:45:17;;;;;;;8.90;4.40;;;;;;;27.16;29.28;101940.12;1737466;81;21570;-70
2021/10/05 09:47:52;;;;;;;5.47;3.53;;;;;;;27.07;29.20;101936.23;1746772;81;21130;-72
2021/10/05 09:50:32;;;;;;;6.20;3.93;;;;;;;27.03;29.45;101938.34;1749176;81;21022;-69
2021/10/05 09:53:07;;;;;;;5.00;3.33;;;;;;;27.06;29.50;101934.63;1741066;81;21505;-70
2021/10/05 09:55:42;;;;;;;7.60;3.93;;;;;;;27.02;29.10;101933.52;1742876;81;21156;-73
2021/10/05 09:58:09;;;;;;;5.60;3.50;;;;;;;26.86;29.28;101937.91;1689246;84;21885;-68
2021/10/05 10:00:40;;;;;;;5.30;3.03;;;;;;;26.85;29.16;101933.59;1746549;81;21100;-72
2021/10/05 10:03:06;;;;;;;5.50;3.63;;;;;;;26.28;29.86;101930.47;1743472;81;21256;-70
2021/10/05 10:05:38;;;;;;;7.67;3.33;;;;;;;26.70;29.71;101932.09;1712683;82;20991;-71
2021/10/05 10:08:05;;;;;;;5.47;3.37;;;;;;;26.50;29.45;101919.82;1704110;82;21161;-68
2021/10/05 10:10:38;;;;;;;5.03;3.40;;;;;;;26.40;30.22;101927.98;1710647;81;21534;-68
2021/10/05 10:13:14;;;;;;;4.40;3.33;;;;;;;27.37;29.12;101921.55;1711593;81;21473;-72
2021/10/05 10:15:42;;;;;;;5.37;3.30;;;;;;;27.70;28.62;101924.48;1713114;81;21635;-67
2021/10/05 10:18:15;;;;;;;6.30;3.40;;;;;;;28.19;27.72;101918.91;1732833;82;21046;-66
2021/10/05 10:20:45;;;;;;;6.77;3.50;;;;;;;28.15;27.69;101916.48;1709268;81;21926;-67
2021/10/05 10:23:21;;;;;;;10.23;3.70;;;;;;;28.15;27.84;101927.20;1715781;82;21019;-66
2021/10/05 10:25:54;;;;;;;7.23;4.17;;;;;;;28.45;26.96;101921.21;1702100;82;21041;-67
2021/10/05 10:28:37;;;;;;;7.50;3.50;;;;;;;28.41;27.01;101918.75;1699762;82;21060;-67
2021/10/05 10:31:07;;;;;;;5.63;3.17;;;;;;;28.40;27.05;101925.19;1667082;83;21513;-68
2021/10/05 10:33:47;;;;;;;7.43;4.07;;;;;;;28.45;26.64;101922.55;1729895;81;21783;-67
2021/10/05 10:36:15;;;;;;;4.67;3.00;;;;;;;28.67;25.98;101923.67;1726410;80;21018;-68
2021/10/05 10:38:43;;;;;;;5.17;3.53;;;;;;;28.37;26.01;101919.00;1728708;82;21480;-66
2021/10/05 10:41:20;;;;;;;5.40;3.10;;;;;;;28.22;26.39;101922.93;1726975;82;21077;-69
2021/10/05 10:44:01;;;;;;;6.43;3.70;;;;;;;28.16;26.58;101923.45;1725466;82;21543;-67
2021/10/05 10:46:34;;;;;;;6.78;3.10;;;;;;;27.92;26.27;101918.20;1727202;80;27245;-66
2021/10/05 10:49:01;;;;;;;7.80;4.20;;;;;;;27.88;26.57;101937.51;1725639;81;20955;-66
2021/10/05 10:51:29;;;;;;;4.80;3.20;;;;;;;27.72;26.68;101929.04;1724541;80;21030;-66
2021/10/05 10:53:57;;;;;;;8.20;3.73;;;;;;;27.43;26.82;101924.55;1725594;80;21149;-66
2021/10/05 10:56:31;;;;;;;5.87;3.70;;;;;;;27.11;26.97;101932.02;1728237;82;20955;-66
2021/10/05 10:59:04;;;;;;;7.43;4.93;;;;;;;26.95;27.22;101931.56;1726464;82;21190;-69
2021/10/05 11:01:46;;;;;;;7.27;3.33;;;;;;;26.82;27.44;101920.73;1685181;81;21685;-67
2021/10/05 11:04:15;;;;;;;4.90;3.40;;;;;;;26.74;27.60;101919.82;1720169;81;21004;-70
2021/10/05 11:06:53;;;;;;;5.70;4.00;;;;;;;26.65;27.45;101930.17;1703814;83;21601;-69
2021/10/05 11:09:20;;;;;;;8.40;5.40;;;;;;;26.39;27.73;101920.99;1704849;82;21084;-68
2021/10/05 11:11:49;;;;;;;6.93;3.80;;;;;;;26.56;27.84;101929.53;1707415;82;21190;-68
2021/10/05 11:14:23;;;;;;;5.80;3.67;;;;;;;26.71;27.70;101932.89;1703281;82;21676;-68
2021/10/05 11:17:00;;;;;;;5.20;3.63;;;;;;;26.55;28.00;101937.25;1726489;81;21500;-70
2021/10/05 11:19:30;;;;;;;7.13;3.80;;;;;;;26.40;28.00;101930.66;1735018;81;20927;-69
2021/10/05 11:21:57;;;;;;;5.57;3.70;;;;;;;26.21;28.19;101940.00;1729636;82;21466;-68
2021/10/05 11:24:43;;;;;;;8.10;3.60;;;;;;;25.93;28.58;101955.11;1729969;82;21225;-67